createdAt,value
2019-02-05T00:01:25.201Z,12.13
2019-02-05T00:03:54.708Z,11.70
2019-02-05T00:06:24.350Z,10.70
2019-02-05T00:08:53.884Z,11.90
2019-02-05T00:11:23.340Z,11.83
2019-02-05T00:13:52.940Z,13.17
2019-02-05T00:16:22.517Z,13.47
2019-02-05T00:18:52.042Z,12.97
2019-02-05T00:21:21.609Z,12.37
2019-02-05T00:23:51.112Z,11.67
2019-02-05T00:26:20.594Z,12.03
2019-02-05T00:28:50.238Z,14.50
2019-02-05T00:31:19.724Z,13.00
2019-02-05T00:33:49.532Z,13.43
2019-02-05T00:36:18.993Z,11.73
2019-02-05T00:38:48.474Z,10.77
2019-02-05T00:41:18.165Z,12.33
2019-02-05T00:43:47.618Z,13.37
2019-02-05T00:46:17.104Z,13.20
2019-02-05T00:48:46.641Z,13.83
2019-02-05T00:51:16.146Z,12.93
2019-02-05T00:53:45.682Z,12.10
2019-02-05T00:56:17.757Z,12.27
2019-02-05T00:58:46.350Z,13.93
2019-02-05T01:01:15.832Z,12.97
2019-02-05T01:03:45.467Z,12.23
2019-02-05T01:06:15.233Z,12.00
2019-02-05T01:08:44.724Z,12.47
2019-02-05T01:11:14.258Z,11.77
2019-02-05T01:13:44.084Z,13.70
2019-02-05T01:16:13.562Z,13.80
2019-02-05T01:18:43.479Z,11.87
2019-02-05T01:21:13.057Z,11.60
2019-02-05T01:23:42.624Z,11.27
2019-02-05T01:26:12.093Z,11.33
2019-02-05T01:28:41.614Z,11.07
2019-02-05T01:31:11.091Z,10.33
2019-02-05T01:33:40.621Z,10.17
2019-02-05T01:36:10.100Z,11.80
2019-02-05T01:38:39.591Z,9.80
2019-02-05T01:41:09.501Z,10.10
2019-02-05T01:43:38.981Z,8.80
2019-02-05T01:46:08.869Z,9.43
2019-02-05T01:48:38.375Z,9.10
2019-02-05T01:51:08.245Z,10.40
2019-02-05T01:53:37.725Z,11.10
2019-02-05T01:56:07.252Z,10.47
2019-02-05T01:58:36.827Z,10.20
2019-02-05T02:01:07.079Z,9.63
2019-02-05T02:03:36.573Z,10.17
2019-02-05T02:06:06.141Z,12.13
2019-02-05T02:08:35.703Z,10.70
2019-02-05T02:11:05.225Z,9.27
2019-02-05T02:13:35.339Z,9.60
2019-02-05T02:16:05.341Z,10.90
2019-02-05T02:18:34.833Z,9.67
2019-02-05T02:21:04.494Z,9.80
2019-02-05T02:23:34.087Z,9.23
2019-02-05T02:26:03.589Z,10.17
2019-02-05T02:28:33.426Z,11.17
2019-02-05T02:31:03.361Z,9.77
2019-02-05T02:33:32.843Z,10.30
2019-02-05T02:36:02.344Z,9.40
2019-02-05T02:38:31.915Z,9.70
2019-02-05T02:41:01.523Z,10.53
2019-02-05T02:43:31.048Z,10.77
2019-02-05T02:46:00.954Z,10.33
2019-02-05T02:48:30.451Z,10.17
2019-02-05T02:50:59.965Z,11.43
2019-02-05T02:53:29.473Z,11.30
2019-02-05T02:55:58.954Z,11.00
2019-02-05T02:58:28.424Z,12.07
2019-02-05T03:00:58.147Z,12.33
2019-02-05T03:03:27.653Z,13.63
2019-02-05T03:05:57.386Z,12.87
2019-02-05T03:08:26.878Z,12.50
2019-02-05T03:10:56.377Z,13.47
2019-02-05T03:13:25.995Z,13.47
2019-02-05T03:15:55.838Z,12.97
2019-02-05T03:18:25.619Z,12.63
2019-02-05T03:20:55.095Z,12.77
2019-02-05T03:23:24.652Z,13.70
2019-02-05T03:25:54.219Z,14.23
2019-02-05T03:28:23.703Z,14.73
2019-02-05T03:30:53.243Z,12.90
2019-02-05T03:33:23.301Z,14.77
2019-02-05T03:35:53.107Z,12.57
2019-02-05T03:38:22.594Z,12.53
2019-02-05T03:41:02.903Z,11.33
2019-02-05T03:43:32.678Z,11.27
2019-02-05T03:46:03.953Z,12.37
2019-02-05T03:48:34.865Z,11.60
2019-02-05T03:51:15.397Z,13.10
2019-02-05T03:53:49.177Z,12.17
2019-02-05T03:56:53.250Z,12.93
2019-02-05T04:00:03.754Z,12.53
2019-02-05T04:03:14.341Z,11.97
2019-02-05T04:06:25.097Z,12.07
2019-02-05T04:09:13.401Z,11.83
2019-02-05T04:12:13.118Z,12.70
2019-02-05T04:15:35.763Z,12.13
2019-02-05T04:18:38.625Z,12.73
2019-02-05T04:21:44.801Z,13.80
2019-02-05T04:24:45.344Z,12.77
2019-02-05T04:27:44.975Z,13.00
2019-02-05T04:30:44.887Z,12.70
2019-02-05T04:33:42.788Z,12.80
2019-02-05T04:36:38.993Z,13.07
2019-02-05T04:39:53.805Z,13.27
2019-02-05T04:43:04.037Z,12.63
2019-02-05T04:46:16.017Z,14.70
2019-02-05T04:49:22.389Z,13.27
2019-02-05T04:52:27.776Z,14.60
2019-02-05T04:55:44.021Z,14.40
2019-02-05T04:58:45.203Z,13.03
2019-02-05T05:01:44.835Z,12.87
2019-02-05T05:04:45.939Z,13.47
2019-02-05T05:07:26.325Z,12.33
2019-02-05T05:09:58.021Z,11.83
2019-02-05T05:12:28.889Z,11.87
2019-02-05T05:14:58.583Z,12.20
2019-02-05T05:17:28.077Z,12.60
2019-02-05T05:19:57.740Z,12.63
2019-02-05T05:22:27.333Z,10.53
2019-02-05T05:24:56.831Z,11.50
2019-02-05T05:27:27.226Z,10.73
2019-02-05T05:29:56.988Z,12.37
2019-02-05T05:32:26.843Z,11.53
2019-02-05T05:34:56.414Z,11.83
2019-02-05T05:37:25.878Z,11.80
2019-02-05T05:39:55.701Z,10.97
2019-02-05T05:42:26.875Z,11.17
2019-02-05T05:44:56.387Z,10.97
2019-02-05T05:47:25.885Z,11.07
2019-02-05T05:49:55.446Z,11.40
2019-02-05T05:52:24.939Z,10.57
2019-02-05T05:54:54.426Z,10.57
2019-02-05T05:57:24.100Z,10.40
2019-02-05T05:59:53.804Z,10.63
2019-02-05T06:02:23.394Z,11.23
2019-02-05T06:04:52.899Z,10.33
2019-02-05T06:07:22.400Z,10.77
2019-02-05T06:09:52.035Z,10.70
2019-02-05T06:12:21.537Z,10.67
2019-02-05T06:14:51.528Z,10.30
2019-02-05T06:17:20.977Z,10.20
2019-02-05T06:19:50.466Z,9.57
2019-02-05T06:22:20.217Z,9.97
2019-02-05T06:24:49.694Z,9.47
2019-02-05T06:27:19.186Z,9.67
2019-02-05T06:29:49.001Z,9.43
2019-02-05T06:32:18.442Z,9.20
2019-02-05T06:34:48.104Z,9.13
2019-02-05T06:37:17.617Z,8.77
2019-02-05T06:39:47.071Z,8.53
2019-02-05T06:42:16.539Z,8.63
2019-02-05T06:44:46.409Z,9.47
2019-02-05T06:47:15.942Z,7.87
2019-02-05T06:49:45.613Z,9.50
2019-02-05T06:52:15.084Z,9.27
2019-02-05T06:54:44.889Z,8.90
2019-02-05T06:57:14.381Z,9.00
2019-02-05T06:59:43.861Z,9.40
2019-02-05T07:02:13.546Z,9.00
2019-02-05T07:04:43.047Z,10.50
2019-02-05T07:07:12.484Z,9.80
2019-02-05T07:09:42.285Z,10.40
2019-02-05T07:12:11.772Z,10.27
2019-02-05T07:14:41.512Z,9.70
2019-02-05T07:17:11.189Z,9.53
2019-02-05T07:19:40.730Z,10.07
2019-02-05T07:22:10.291Z,9.87
2019-02-05T07:24:39.758Z,10.80
2019-02-05T07:27:09.241Z,11.77
2019-02-05T07:29:38.861Z,10.87
2019-02-05T07:32:08.669Z,11.83
2019-02-05T07:34:38.313Z,12.67
2019-02-05T07:37:07.777Z,11.93
2019-02-05T07:39:37.297Z,10.30
2019-02-05T07:42:06.982Z,11.50
2019-02-05T07:44:36.463Z,11.90
2019-02-05T07:47:05.973Z,11.37
2019-02-05T07:49:35.656Z,10.50
2019-02-05T07:52:05.162Z,12.07
2019-02-05T07:54:34.674Z,11.63
2019-02-05T07:57:04.209Z,12.47
2019-02-05T07:59:33.701Z,11.13
2019-02-05T08:02:03.196Z,11.03
2019-02-05T08:04:32.984Z,10.87
2019-02-05T08:07:03.192Z,11.13
2019-02-05T08:09:32.656Z,10.73
2019-02-05T08:12:02.130Z,11.17
2019-02-05T08:14:31.829Z,11.27
2019-02-05T08:17:01.347Z,11.23
2019-02-05T08:19:31.217Z,10.27
2019-02-05T08:22:00.720Z,10.33
2019-02-05T08:24:30.190Z,10.67
2019-02-05T08:26:59.812Z,10.90
2019-02-05T08:29:29.314Z,10.53
2019-02-05T08:31:58.851Z,11.33
2019-02-05T08:34:28.494Z,11.57
2019-02-05T08:36:58.054Z,10.87
2019-02-05T08:39:27.726Z,13.40
2019-02-05T08:41:57.496Z,17.90
2019-02-05T08:44:27.024Z,15.53
2019-02-05T08:46:56.506Z,18.17
2019-02-05T08:49:25.993Z,13.83
2019-02-05T08:51:55.526Z,14.27
2019-02-05T08:54:25.162Z,15.63
2019-02-05T08:56:54.635Z,13.30
2019-02-05T08:59:24.118Z,13.80
2019-02-05T09:01:53.727Z,12.23
2019-02-05T09:04:23.264Z,12.50
2019-02-05T09:06:52.773Z,13.87
2019-02-05T09:09:22.418Z,12.47
2019-02-05T09:11:51.887Z,13.33
2019-02-05T09:14:21.905Z,12.23
2019-02-05T09:16:51.490Z,10.63
2019-02-05T09:19:20.949Z,11.23
2019-02-05T09:21:50.495Z,12.77
2019-02-05T09:24:19.983Z,12.77
2019-02-05T09:26:49.452Z,11.50
2019-02-05T09:29:19.143Z,12.03
2019-02-05T09:31:48.613Z,11.30
2019-02-05T09:34:18.123Z,11.47
2019-02-05T09:36:47.812Z,15.00
2019-02-05T09:39:17.293Z,13.37
2019-02-05T09:41:46.866Z,12.50
2019-02-05T09:44:16.541Z,11.03
2019-02-05T09:46:46.645Z,12.03
2019-02-05T09:49:16.123Z,10.70
2019-02-05T09:51:45.631Z,9.90
2019-02-05T09:54:15.625Z,11.30
2019-02-05T09:56:45.101Z,10.20
2019-02-05T09:59:14.657Z,9.00
2019-02-05T10:01:44.179Z,9.17
2019-02-05T10:04:13.657Z,11.07
2019-02-05T10:06:43.238Z,10.80
2019-02-05T10:09:12.758Z,9.93
2019-02-05T10:11:42.216Z,8.93
2019-02-05T10:14:11.994Z,9.57
2019-02-05T10:16:41.490Z,10.37
2019-02-05T10:19:11.415Z,11.53
2019-02-05T10:21:40.900Z,11.03
2019-02-05T10:24:10.440Z,10.23
2019-02-05T10:26:40.033Z,11.07
2019-02-05T10:29:09.575Z,10.60
2019-02-05T10:31:39.368Z,10.73
2019-02-05T10:34:08.970Z,11.10
2019-02-05T10:36:38.491Z,10.97
2019-02-05T10:39:10.256Z,10.87
2019-02-05T10:41:39.834Z,12.10
2019-02-05T10:44:09.474Z,11.97
2019-02-05T10:46:38.948Z,13.47
2019-02-05T10:49:08.461Z,13.07
2019-02-05T10:51:38.110Z,11.00
2019-02-05T10:54:07.666Z,11.87
2019-02-05T10:56:37.160Z,10.50
2019-02-05T10:59:06.772Z,10.30
2019-02-05T11:01:36.360Z,10.40
2019-02-05T11:04:06.142Z,10.73
2019-02-05T11:06:36.306Z,10.20
2019-02-05T11:09:09.418Z,11.53
2019-02-05T11:11:38.918Z,11.70
2019-02-05T11:14:08.430Z,10.97
2019-02-05T11:16:37.968Z,10.87
2019-02-05T11:19:07.468Z,11.13
2019-02-05T11:21:37.594Z,10.27
2019-02-05T11:24:07.243Z,11.13
2019-02-05T11:26:36.984Z,11.43
2019-02-05T11:29:06.450Z,11.50
2019-02-05T11:31:35.963Z,12.77
2019-02-05T11:34:05.999Z,11.33
2019-02-05T11:36:35.471Z,13.10
2019-02-05T11:39:09.921Z,11.10
2019-02-05T11:41:39.395Z,12.03
2019-02-05T11:44:08.891Z,11.10
2019-02-05T11:46:38.610Z,10.53
2019-02-05T11:49:08.138Z,11.10
2019-02-05T11:51:37.597Z,10.47
2019-02-05T11:54:07.259Z,11.67
2019-02-05T11:56:36.756Z,12.20
2019-02-05T11:59:06.380Z,11.17
2019-02-05T12:01:39.078Z,12.30
2019-02-05T12:04:07.945Z,11.07
2019-02-05T12:06:37.442Z,10.97
2019-02-05T12:09:21.305Z,10.53
2019-02-05T12:11:50.779Z,10.83
2019-02-05T12:14:20.595Z,11.37
2019-02-05T12:16:51.067Z,10.97
2019-02-05T12:19:20.597Z,11.50
2019-02-05T12:21:50.376Z,10.77
2019-02-05T12:24:19.879Z,11.00
2019-02-05T12:26:49.536Z,11.37
2019-02-05T12:29:19.039Z,10.97
2019-02-05T12:31:48.763Z,12.03
2019-02-05T12:34:18.225Z,11.10
2019-02-05T12:36:47.771Z,10.90
2019-02-05T12:39:20.888Z,11.07
2019-02-05T12:41:51.252Z,12.43
2019-02-05T12:44:21.231Z,13.23
2019-02-05T12:46:51.113Z,13.57
2019-02-05T12:49:20.631Z,13.20
2019-02-05T12:51:50.144Z,10.57
2019-02-05T12:54:19.714Z,12.67
2019-02-05T12:56:49.197Z,13.00
2019-02-05T12:59:18.771Z,12.03
2019-02-05T13:01:48.423Z,13.00
2019-02-05T13:04:17.919Z,13.40
2019-02-05T13:06:47.784Z,12.63
2019-02-05T13:09:17.304Z,12.37
2019-02-05T13:11:46.873Z,13.37
2019-02-05T13:14:16.509Z,14.40
2019-02-05T13:16:45.978Z,14.43
2019-02-05T13:19:15.477Z,13.73
2019-02-05T13:21:45.050Z,12.20
2019-02-05T13:24:16.532Z,12.27
2019-02-05T13:26:45.734Z,12.30
2019-02-05T13:29:15.222Z,12.23
2019-02-05T13:31:44.851Z,14.50
2019-02-05T13:34:14.379Z,15.50
2019-02-05T13:36:43.979Z,15.13
2019-02-05T13:39:13.940Z,16.10
2019-02-05T13:41:43.500Z,15.80
2019-02-05T13:44:13.046Z,13.43
2019-02-05T13:46:42.591Z,13.43
2019-02-05T13:49:12.578Z,19.43
2019-02-05T13:51:42.130Z,18.63
2019-02-05T13:54:11.739Z,12.37
2019-02-05T13:56:41.246Z,15.73
2019-02-05T13:59:10.722Z,11.80
2019-02-05T14:01:40.535Z,13.33
2019-02-05T14:04:09.982Z,14.10
2019-02-05T14:06:39.454Z,14.43
2019-02-05T14:09:13.556Z,14.10
2019-02-05T14:11:43.147Z,14.73
2019-02-05T14:14:12.630Z,13.80
2019-02-05T14:16:42.221Z,12.87
2019-02-05T14:19:11.766Z,13.00
2019-02-05T14:21:41.212Z,14.30
2019-02-05T14:24:10.721Z,14.00
2019-02-05T14:26:40.457Z,14.23
2019-02-05T14:29:09.920Z,13.03
2019-02-05T14:31:39.453Z,14.00
2019-02-05T14:34:09.092Z,14.53
2019-02-05T14:36:38.562Z,13.77
2019-02-05T14:39:10.387Z,12.80
2019-02-05T14:41:39.902Z,14.63
2019-02-05T14:44:09.471Z,13.47
2019-02-05T14:46:39.159Z,13.40
2019-02-05T14:49:09.257Z,14.40
2019-02-05T14:51:38.713Z,13.97
2019-02-05T14:54:08.198Z,14.40
2019-02-05T14:56:37.861Z,13.47
2019-02-05T14:59:08.683Z,12.77
2019-02-05T15:01:43.287Z,13.40
2019-02-05T15:04:09.597Z,13.63
2019-02-05T15:06:39.087Z,13.03
2019-02-05T15:09:09.271Z,15.33
2019-02-05T15:11:38.795Z,15.67
2019-02-05T15:14:08.663Z,17.20
2019-02-05T15:16:38.219Z,15.03
2019-02-05T15:19:07.740Z,13.87
2019-02-05T15:21:37.241Z,14.20
2019-02-05T15:24:06.862Z,14.40
2019-02-05T15:26:36.420Z,15.07
2019-02-05T15:29:06.026Z,14.67
2019-02-05T15:31:35.901Z,15.20
2019-02-05T15:34:17.579Z,13.97
2019-02-05T15:36:49.192Z,14.60
2019-02-05T15:39:18.710Z,14.83
2019-02-05T15:41:48.286Z,15.17
2019-02-05T15:44:17.780Z,13.67
2019-02-05T15:46:47.297Z,15.07
2019-02-05T15:49:17.200Z,14.53
2019-02-05T15:51:46.671Z,15.67
2019-02-05T15:54:16.329Z,16.77
2019-02-05T15:56:45.838Z,16.60
2019-02-05T15:59:15.313Z,16.73
2019-02-05T16:01:45.128Z,18.13
2019-02-05T16:04:14.626Z,19.00
2019-02-05T16:06:44.098Z,19.03
2019-02-05T16:09:13.935Z,21.33
2019-02-05T16:11:43.404Z,21.50
2019-02-05T16:14:13.069Z,21.20
2019-02-05T16:16:42.593Z,22.23
2019-02-05T16:19:12.077Z,20.97
2019-02-05T16:21:42.104Z,18.70
2019-02-05T16:24:11.655Z,25.03
2019-02-05T16:26:41.160Z,23.37
2019-02-05T16:29:12.335Z,23.10
2019-02-05T16:31:41.831Z,22.07
2019-02-05T16:34:11.327Z,23.13
2019-02-05T16:36:40.940Z,26.63
2019-02-05T16:39:11.713Z,25.03
2019-02-05T16:41:41.310Z,37.63
2019-02-05T16:44:10.818Z,31.50
2019-02-05T16:46:40.294Z,34.20
2019-02-05T16:49:10.157Z,28.43
2019-02-05T16:51:39.627Z,24.27
2019-02-05T16:54:09.149Z,25.27
2019-02-05T16:56:39.041Z,21.30
2019-02-05T16:59:08.530Z,26.23
2019-02-05T17:01:38.652Z,26.23
2019-02-05T17:04:08.188Z,28.23
2019-02-05T17:06:37.703Z,20.40
2019-02-05T17:09:14.435Z,24.67
2019-02-05T17:11:43.904Z,25.87
2019-02-05T17:14:13.430Z,24.77
2019-02-05T17:16:42.987Z,27.47
2019-02-05T17:19:12.506Z,23.43
2019-02-05T17:21:42.028Z,26.77
2019-02-05T17:24:11.876Z,24.33
2019-02-05T17:26:41.638Z,22.37
2019-02-05T17:29:11.500Z,27.83
2019-02-05T17:31:41.260Z,29.17
2019-02-05T17:34:10.802Z,30.70
2019-02-05T17:36:40.343Z,26.20
2019-02-05T17:39:12.125Z,22.07
2019-02-05T17:41:41.635Z,23.30
2019-02-05T17:44:11.147Z,19.17
2019-02-05T17:46:40.642Z,18.67
2019-02-05T17:49:12.096Z,20.63
2019-02-05T17:51:41.309Z,22.90
2019-02-05T17:54:11.281Z,24.87
2019-02-05T17:56:40.862Z,28.83
2019-02-05T17:59:10.570Z,28.07
2019-02-05T18:01:40.111Z,25.63
2019-02-05T18:04:09.602Z,24.60
2019-02-05T18:06:39.262Z,24.23
2019-02-05T18:09:09.592Z,23.07
2019-02-05T18:11:39.103Z,25.00
2019-02-05T18:14:08.883Z,27.17
2019-02-05T18:16:38.378Z,25.83
2019-02-05T18:19:07.865Z,27.97
2019-02-05T18:21:37.755Z,25.43
2019-02-05T18:24:07.597Z,25.63
2019-02-05T18:26:37.114Z,26.80
2019-02-05T18:29:06.709Z,25.23
2019-02-05T18:31:37.868Z,27.83
2019-02-05T18:34:07.626Z,30.43
2019-02-05T18:36:37.225Z,32.50
2019-02-05T18:39:09.516Z,32.50
2019-02-05T18:41:39.123Z,33.47
2019-02-05T18:44:08.593Z,35.63
2019-02-05T18:46:38.089Z,30.03
2019-02-05T18:49:08.426Z,34.53
2019-02-05T18:51:38.257Z,32.97
2019-02-05T18:54:07.746Z,29.10
2019-02-05T18:56:37.419Z,30.10
2019-02-05T18:59:06.961Z,31.50
2019-02-05T19:01:36.537Z,26.83
2019-02-05T19:04:06.397Z,30.83
2019-02-05T19:06:36.231Z,35.83
2019-02-05T19:09:12.427Z,32.57
2019-02-05T19:11:41.966Z,34.50
2019-02-05T19:14:11.494Z,32.60
2019-02-05T19:16:41.037Z,33.17
2019-02-05T19:19:14.986Z,34.90
2019-02-05T19:21:42.021Z,35.60
2019-02-05T19:24:30.545Z,33.60
2019-02-05T19:27:00.325Z,32.43
2019-02-05T19:29:29.822Z,33.67
2019-02-05T19:31:59.565Z,36.57
2019-02-05T19:34:29.086Z,32.60
2019-02-05T19:36:58.607Z,32.33
2019-02-05T19:39:28.318Z,31.97
2019-02-05T19:41:57.919Z,41.00
2019-02-05T19:44:27.953Z,37.03
2019-02-05T19:47:09.454Z,37.67
2019-02-05T19:49:48.318Z,34.50
2019-02-05T19:52:17.863Z,38.30
2019-02-05T19:54:47.380Z,37.93
2019-02-05T19:57:16.945Z,35.90
2019-02-05T19:59:50.432Z,35.47
2019-02-05T20:02:21.343Z,33.97
2019-02-05T20:04:50.919Z,33.70
2019-02-05T20:07:20.731Z,33.43
2019-02-05T20:09:50.689Z,35.47
2019-02-05T20:12:22.024Z,33.20
2019-02-05T20:14:51.600Z,34.40
2019-02-05T20:17:23.430Z,35.20
2019-02-05T20:19:52.943Z,36.17
2019-02-05T20:22:22.429Z,35.50
2019-02-05T20:24:52.367Z,34.83
2019-02-05T20:27:23.501Z,34.20
2019-02-05T20:29:53.336Z,35.17
2019-02-05T20:32:22.881Z,35.73
2019-02-05T20:34:52.415Z,33.97
2019-02-05T20:37:22.034Z,33.97
2019-02-05T20:39:51.553Z,33.67
2019-02-05T20:42:23.585Z,34.17
2019-02-05T20:44:53.241Z,31.77
2019-02-05T20:47:23.044Z,31.90
2019-02-05T20:49:52.573Z,33.50
2019-02-05T20:52:22.079Z,34.63
2019-02-05T20:54:51.929Z,34.43
2019-02-05T20:57:21.436Z,36.23
2019-02-05T20:59:52.530Z,33.60
2019-02-05T21:02:22.468Z,34.83
2019-02-05T21:04:54.611Z,36.57
2019-02-05T21:07:24.155Z,34.73
2019-02-05T21:09:54.029Z,32.93
2019-02-05T21:12:23.650Z,36.53
2019-02-05T21:14:53.654Z,38.67
2019-02-05T21:17:23.206Z,35.83
2019-02-05T21:19:52.853Z,40.07
2019-02-05T21:22:22.485Z,37.27
2019-02-05T21:24:52.184Z,40.60
2019-02-05T21:27:21.803Z,42.57
2019-02-05T21:29:51.734Z,40.47
2019-02-05T21:32:21.903Z,40.63
2019-02-05T21:34:51.365Z,43.20
2019-02-05T21:37:22.442Z,49.17
2019-02-05T21:40:02.107Z,49.37
2019-02-05T21:42:23.447Z,40.03
2019-02-05T21:44:53.759Z,37.73
2019-02-05T21:47:23.396Z,38.57
2019-02-05T21:49:52.965Z,40.07
2019-02-05T21:52:22.688Z,38.23
2019-02-05T21:54:52.580Z,41.43
2019-02-05T21:57:24.372Z,35.83
2019-02-05T21:59:56.434Z,38.50
2019-02-05T22:02:26.279Z,36.93
2019-02-05T22:04:55.792Z,41.73
2019-02-05T22:07:25.669Z,38.97
2019-02-05T22:09:55.177Z,37.47
2019-02-05T22:12:24.826Z,37.63
2019-02-05T22:14:54.321Z,37.90
2019-02-05T22:17:24.402Z,37.37
2019-02-05T22:19:53.888Z,37.30
2019-02-05T22:22:23.527Z,37.23
2019-02-05T22:24:53.100Z,38.70
2019-02-05T22:27:22.727Z,36.30
2019-02-05T22:29:52.390Z,38.83
2019-02-05T22:32:22.510Z,38.73
2019-02-05T22:34:51.995Z,37.77
2019-02-05T22:37:21.544Z,35.70
2019-02-05T22:39:51.640Z,34.77
2019-02-05T22:42:21.158Z,36.13
2019-02-05T22:44:52.066Z,35.50
2019-02-05T22:47:21.583Z,37.70
2019-02-05T22:49:51.131Z,37.27
2019-02-05T22:52:22.204Z,38.40
2019-02-05T22:54:51.740Z,38.23
2019-02-05T22:57:23.245Z,35.93
2019-02-05T22:59:53.119Z,39.47
2019-02-05T23:02:23.980Z,41.60
2019-02-05T23:05:13.894Z,37.13
2019-02-05T23:07:43.395Z,37.50
2019-02-05T23:10:43.048Z,36.77
2019-02-05T23:13:15.519Z,35.03
2019-02-05T23:15:47.250Z,35.57
2019-02-05T23:18:17.867Z,35.77
2019-02-05T23:20:49.715Z,33.93
2019-02-05T23:23:21.306Z,35.47
2019-02-05T23:25:50.846Z,37.23
2019-02-05T23:28:23.137Z,37.23
2019-02-05T23:30:52.974Z,37.53
2019-02-05T23:33:22.509Z,34.07
2019-02-05T23:35:53.109Z,34.00
2019-02-05T23:38:29.408Z,33.63
2019-02-05T23:40:54.575Z,32.83
2019-02-05T23:43:24.121Z,33.83
2019-02-05T23:46:01.323Z,36.23
2019-02-05T23:48:25.296Z,33.63
2019-02-05T23:50:54.793Z,34.17
2019-02-05T23:53:24.649Z,33.60
2019-02-05T23:55:54.178Z,40.40
2019-02-05T23:58:23.769Z,40.87
